Time;durP1;ratioP1;P1;durP2;ratioP2;P2;SDS_P1;SDS_P2;PMS_P1;PMS_P2;Temp;Humidity;BMP_temperature;BMP_pressure;BME280_temperature;BME280_humidity;BME280_pressure;Samples;Min_cycle;Max_cycle;Signal;HPM_P1;HPM_P2
2023/12/16 00:02:09;;;;;;;11.05;6.43;;;;;;;;;;5089099;28;20032;-76
2023/12/16 00:04:35;;;;;;;10.20;7.25;;;;;;;;;;5064352;28;20028;-76
2023/12/16 00:07:01;;;;;;;12.30;8.45;;;;;;;;;;5073660;28;20090;-76
2023/12/16 00:09:28;;;;;;;15.52;10.20;;;;;;;;;;5073663;28;20171;-76
2023/12/16 00:11:54;;;;;;;17.38;10.40;;;;;;;;;;5059168;28;20021;-75
2023/12/16 00:14:20;;;;;;;16.02;9.63;;;;;;;;;;5063588;28;20081;-75
2023/12/16 00:16:46;;;;;;;17.25;11.10;;;;;;;;;;5054930;28;20100;-76
2023/12/16 00:19:12;;;;;;;18.98;10.77;;;;;;;;;;5061817;28;20029;-76
2023/12/16 00:21:38;;;;;;;16.40;9.30;;;;;;;;;;5061367;28;20056;-76
2023/12/16 00:24:06;;;;;;;15.63;9.70;;;;;;;;;;5064834;28;20502;-76
2023/12/16 00:26:33;;;;;;;16.42;10.48;;;;;;;;;;5057149;28;20047;-76
2023/12/16 00:28:59;;;;;;;14.32;10.00;;;;;;;;;;5054036;28;20522;-76
2023/12/16 00:31:25;;;;;;;16.77;9.65;;;;;;;;;;5053514;28;20013;-76
2023/12/16 00:33:51;;;;;;;15.52;9.23;;;;;;;;;;5064054;28;20540;-76
2023/12/16 00:36:17;;;;;;;13.18;7.88;;;;;;;;;;5059544;28;20029;-75
2023/12/16 00:38:43;;;;;;;13.20;7.85;;;;;;;;;;5052112;28;20171;-76
2023/12/16 00:41:10;;;;;;;10.95;6.90;;;;;;;;;;5054131;28;20032;-75
2023/12/16 00:43:36;;;;;;;9.35;5.75;;;;;;;;;;5053660;28;20515;-77
2023/12/16 00:46:02;;;;;;;10.98;6.30;;;;;;;;;;5074836;28;20013;-76
2023/12/16 00:48:28;;;;;;;7.57;5.22;;;;;;;;;;5066087;28;20024;-76
2023/12/16 00:50:54;;;;;;;7.70;4.95;;;;;;;;;;5060959;28;20031;-76
2023/12/16 00:53:21;;;;;;;6.25;4.75;;;;;;;;;;5068634;28;20024;-77
2023/12/16 00:55:47;;;;;;;7.10;4.40;;;;;;;;;;5067310;28;20308;-77
2023/12/16 00:58:13;;;;;;;7.25;5.15;;;;;;;;;;5066736;28;20024;-76
2023/12/16 01:00:42;;;;;;;10.07;6.00;;;;;;;;;;5069479;28;20100;-76
2023/12/16 01:03:08;;;;;;;12.52;8.73;;;;;;;;;;5068832;28;20042;-75
2023/12/16 01:05:34;;;;;;;13.23;8.52;;;;;;;;;;5069152;28;20029;-76
2023/12/16 01:08:00;;;;;;;12.32;7.97;;;;;;;;;;5068830;28;20048;-76
2023/12/16 01:10:26;;;;;;;12.13;7.47;;;;;;;;;;5068692;28;20020;-76
2023/12/16 01:12:52;;;;;;;14.27;8.70;;;;;;;;;;5064468;28;20024;-76
2023/12/16 01:15:19;;;;;;;17.33;10.30;;;;;;;;;;5062624;28;20118;-76
2023/12/16 01:17:45;;;;;;;12.80;9.15;;;;;;;;;;5065717;28;20025;-76
2023/12/16 01:20:11;;;;;;;14.85;9.35;;;;;;;;;;5062458;28;20584;-76
2023/12/16 01:22:37;;;;;;;13.15;8.13;;;;;;;;;;5068826;28;20024;-76
2023/12/16 01:25:03;;;;;;;12.15;7.80;;;;;;;;;;5060064;28;20032;-76
2023/12/16 01:27:30;;;;;;;10.13;7.80;;;;;;;;;;5068219;28;20032;-76
2023/12/16 01:29:56;;;;;;;10.65;7.05;;;;;;;;;;5058242;28;20033;-76
2023/12/16 01:32:22;;;;;;;9.88;6.78;;;;;;;;;;5067918;28;20477;-75
2023/12/16 01:34:48;;;;;;;10.50;7.10;;;;;;;;;;5066102;28;20047;-75
2023/12/16 01:37:15;;;;;;;14.77;8.45;;;;;;;;;;5068069;28;20031;-75
2023/12/16 01:39:41;;;;;;;12.20;7.45;;;;;;;;;;5058738;28;20058;-75
2023/12/16 01:42:07;;;;;;;10.48;6.75;;;;;;;;;;5055839;28;20032;-76
2023/12/16 01:44:33;;;;;;;11.32;6.85;;;;;;;;;;5062980;28;20055;-76
2023/12/16 01:46:59;;;;;;;9.23;6.30;;;;;;;;;;5059652;28;20082;-76
2023/12/16 01:49:25;;;;;;;8.50;5.82;;;;;;;;;;5070893;28;20035;-76
2023/12/16 01:51:52;;;;;;;9.20;6.50;;;;;;;;;;5070155;28;20025;-77
2023/12/16 01:54:19;;;;;;;11.93;7.65;;;;;;;;;;5068069;28;20119;-76
2023/12/16 01:56:49;;;;;;;11.98;7.85;;;;;;;;;;5068612;28;20429;-75
2023/12/16 01:59:15;;;;;;;10.60;7.18;;;;;;;;;;5064662;28;20036;-76
2023/12/16 02:01:41;;;;;;;9.85;6.60;;;;;;;;;;5064363;28;20085;-76
2023/12/16 02:04:08;;;;;;;11.93;6.97;;;;;;;;;;5064654;28;20025;-76
2023/12/16 02:06:34;;;;;;;9.55;7.15;;;;;;;;;;5064082;28;20475;-75
2023/12/16 02:09:00;;;;;;;8.68;6.35;;;;;;;;;;5063928;28;20037;-76
2023/12/16 02:11:26;;;;;;;7.97;5.78;;;;;;;;;;5053273;28;20496;-75
2023/12/16 02:13:52;;;;;;;8.82;6.07;;;;;;;;;;5059222;28;20036;-76
2023/12/16 02:16:18;;;;;;;11.07;7.72;;;;;;;;;;5059078;28;20112;-76
2023/12/16 02:18:44;;;;;;;11.98;7.32;;;;;;;;;;5058658;28;20087;-76
2023/12/16 02:21:10;;;;;;;10.13;6.70;;;;;;;;;;5056295;28;20039;-76
2023/12/16 02:23:37;;;;;;;9.70;6.43;;;;;;;;;;5059766;28;20032;-77
2023/12/16 02:26:04;;;;;;;8.60;5.78;;;;;;;;;;5062915;28;20081;-76
2023/12/16 02:28:30;;;;;;;8.40;6.07;;;;;;;;;;5055332;28;20379;-76
2023/12/16 02:30:56;;;;;;;10.60;7.18;;;;;;;;;;5055316;28;20021;-76
2023/12/16 02:33:23;;;;;;;10.85;7.70;;;;;;;;;;5061145;28;20086;-76
2023/12/16 02:35:49;;;;;;;12.63;8.23;;;;;;;;;;5066312;28;20428;-76
2023/12/16 02:38:15;;;;;;;11.35;8.00;;;;;;;;;;5059829;28;20032;-76
2023/12/16 02:40:42;;;;;;;11.20;7.40;;;;;;;;;;5058738;28;20024;-76
2023/12/16 02:43:12;;;;;;;9.95;6.55;;;;;;;;;;5054233;28;20025;-77
2023/12/16 02:45:38;;;;;;;10.30;6.55;;;;;;;;;;5068657;28;20031;-76
2023/12/16 02:48:04;;;;;;;8.85;6.38;;;;;;;;;;5054588;28;20527;-76
2023/12/16 02:50:31;;;;;;;9.77;6.55;;;;;;;;;;5054864;28;20017;-77
2023/12/16 02:52:57;;;;;;;9.15;5.90;;;;;;;;;;5056020;28;20036;-77
2023/12/16 02:55:23;;;;;;;14.02;7.80;;;;;;;;;;5054273;28;20024;-76
2023/12/16 02:57:49;;;;;;;10.52;6.60;;;;;;;;;;5058061;28;20025;-76
2023/12/16 03:00:15;;;;;;;10.15;6.72;;;;;;;;;;5054838;28;20029;-76
2023/12/16 03:02:41;;;;;;;10.23;7.10;;;;;;;;;;5054500;28;20474;-76
2023/12/16 03:05:07;;;;;;;9.48;5.80;;;;;;;;;;5058426;28;20028;-74
2023/12/16 03:07:33;;;;;;;7.88;5.15;;;;;;;;;;5073304;28;20017;-76
2023/12/16 03:10:00;;;;;;;8.00;5.68;;;;;;;;;;5054106;28;20025;-77
2023/12/16 03:12:26;;;;;;;9.60;6.22;;;;;;;;;;5054142;28;20020;-76
2023/12/16 03:14:52;;;;;;;11.20;6.28;;;;;;;;;;5056742;28;20033;-77
2023/12/16 03:17:18;;;;;;;10.38;6.25;;;;;;;;;;5050794;28;20090;-76
2023/12/16 03:19:44;;;;;;;9.95;6.68;;;;;;;;;;5075067;28;20017;-74
2023/12/16 03:22:11;;;;;;;9.25;6.60;;;;;;;;;;5072203;28;20025;-75
2023/12/16 03:24:37;;;;;;;12.95;7.85;;;;;;;;;;5062317;28;20021;-76
2023/12/16 03:27:03;;;;;;;11.25;7.55;;;;;;;;;;5057380;28;20347;-76
2023/12/16 03:29:29;;;;;;;8.52;6.45;;;;;;;;;;5066284;28;20084;-76
2023/12/16 03:31:55;;;;;;;8.23;5.30;;;;;;;;;;5066083;28;20078;-76
2023/12/16 03:34:22;;;;;;;8.70;5.47;;;;;;;;;;5067592;28;20032;-74
2023/12/16 03:36:48;;;;;;;8.30;5.53;;;;;;;;;;5058758;28;20013;-77
2023/12/16 03:39:14;;;;;;;7.55;4.70;;;;;;;;;;5054644;28;20397;-75
2023/12/16 03:41:40;;;;;;;7.85;5.53;;;;;;;;;;5053852;28;20029;-75
2023/12/16 03:44:07;;;;;;;8.30;5.25;;;;;;;;;;5056177;28;20406;-74
2023/12/16 03:46:33;;;;;;;8.30;5.47;;;;;;;;;;5053748;28;20071;-76
2023/12/16 03:48:59;;;;;;;9.35;5.53;;;;;;;;;;5054421;28;20025;-75
2023/12/16 03:51:25;;;;;;;9.65;5.65;;;;;;;;;;5054413;28;20017;-76
2023/12/16 03:53:52;;;;;;;7.93;5.40;;;;;;;;;;5054702;28;20086;-75
2023/12/16 03:56:18;;;;;;;8.07;5.25;;;;;;;;;;5054596;28;20530;-75
2023/12/16 03:58:44;;;;;;;7.85;5.25;;;;;;;;;;5054212;28;20025;-77
2023/12/16 04:01:13;;;;;;;6.45;4.47;;;;;;;;;;5062672;28;20052;-76
2023/12/16 04:03:42;;;;;;;5.28;4.15;;;;;;;;;;5070802;28;20039;-74
2023/12/16 04:06:12;;;;;;;9.20;6.10;;;;;;;;;;5049915;28;20479;-76
2023/12/16 04:08:38;;;;;;;8.82;5.60;;;;;;;;;;5055281;28;20021;-80
2023/12/16 04:11:05;;;;;;;8.43;5.47;;;;;;;;;;5066580;28;20054;-79
2023/12/16 04:13:31;;;;;;;7.57;4.43;;;;;;;;;;5067896;28;20329;-78
2023/12/16 04:15:57;;;;;;;6.95;4.47;;;;;;;;;;5066742;28;20479;-78
2023/12/16 04:18:23;;;;;;;4.57;3.65;;;;;;;;;;5067854;28;20025;-78
2023/12/16 04:20:49;;;;;;;5.70;4.15;;;;;;;;;;5080892;28;20024;-77
2023/12/16 04:23:15;;;;;;;6.60;4.05;;;;;;;;;;5068229;28;20032;-77
2023/12/16 04:25:42;;;;;;;5.90;4.22;;;;;;;;;;5065609;28;20125;-78
2023/12/16 04:28:08;;;;;;;9.45;5.90;;;;;;;;;;5053460;28;20032;-77
2023/12/16 04:30:34;;;;;;;8.32;5.38;;;;;;;;;;5078257;28;20025;-77
2023/12/16 04:33:00;;;;;;;8.65;5.47;;;;;;;;;;5071264;28;20565;-75
2023/12/16 04:35:26;;;;;;;10.65;7.10;;;;;;;;;;5060578;28;20051;-76
2023/12/16 04:37:52;;;;;;;11.98;8.15;;;;;;;;;;5062677;28;20024;-76
2023/12/16 04:40:18;;;;;;;13.48;8.43;;;;;;;;;;5064203;28;20098;-76
2023/12/16 04:42:44;;;;;;;15.57;9.32;;;;;;;;;;5065519;28;20021;-76
2023/12/16 04:45:10;;;;;;;13.63;8.57;;;;;;;;;;5069957;28;20029;-75
2023/12/16 04:47:37;;;;;;;13.52;8.52;;;;;;;;;;5061989;28;20024;-75
2023/12/16 04:50:03;;;;;;;17.38;10.45;;;;;;;;;;5061604;28;20025;-75
2023/12/16 04:52:30;;;;;;;15.23;9.05;;;;;;;;;;5059724;28;20021;-73
2023/12/16 04:54:56;;;;;;;14.30;9.15;;;;;;;;;;5054409;28;20059;-74
2023/12/16 04:57:22;;;;;;;11.15;7.40;;;;;;;;;;5065502;28;20028;-75
2023/12/16 04:59:48;;;;;;;13.13;7.57;;;;;;;;;;5093702;22;20044;-80
2023/12/16 05:02:14;;;;;;;12.18;7.78;;;;;;;;;;5099734;28;20017;-79
2023/12/16 05:04:40;;;;;;;12.43;7.22;;;;;;;;;;5079595;28;20054;-78
2023/12/16 05:07:06;;;;;;;13.07;7.13;;;;;;;;;;5075599;28;20080;-78
2023/12/16 05:09:32;;;;;;;13.25;7.68;;;;;;;;;;5076065;28;20021;-78
2023/12/16 05:11:59;;;;;;;12.82;8.18;;;;;;;;;;5069437;28;20021;-78
2023/12/16 05:14:26;;;;;;;10.73;6.82;;;;;;;;;;5067957;28;20030;-77
2023/12/16 05:16:52;;;;;;;11.65;7.03;;;;;;;;;;5064577;28;20021;-77
2023/12/16 05:19:18;;;;;;;12.07;7.45;;;;;;;;;;5057832;28;20021;-78
2023/12/16 05:21:44;;;;;;;13.15;7.93;;;;;;;;;;5051127;28;20022;-79
2023/12/16 05:24:10;;;;;;;11.50;7.32;;;;;;;;;;5044903;28;20475;-77
2023/12/16 05:26:36;;;;;;;14.88;8.80;;;;;;;;;;5052945;28;20026;-77
2023/12/16 05:29:02;;;;;;;13.95;8.55;;;;;;;;;;5050638;28;20032;-78
2023/12/16 05:31:28;;;;;;;12.77;7.97;;;;;;;;;;5060780;28;20040;-78
2023/12/16 05:33:54;;;;;;;12.55;7.80;;;;;;;;;;5056765;28;20090;-78
2023/12/16 05:36:21;;;;;;;11.13;6.85;;;;;;;;;;5056307;28;20025;-78
2023/12/16 05:38:47;;;;;;;9.95;6.78;;;;;;;;;;5056545;28;20032;-78
2023/12/16 05:41:16;;;;;;;12.98;7.30;;;;;;;;;;5068460;28;20073;-78
2023/12/16 05:43:42;;;;;;;11.27;6.78;;;;;;;;;;5055486;28;20029;-78
2023/12/16 05:46:08;;;;;;;10.27;6.85;;;;;;;;;;5052196;28;20033;-78
2023/12/16 05:48:36;;;;;;;14.35;7.82;;;;;;;;;;5052039;28;20032;-77
2023/12/16 05:51:02;;;;;;;11.50;7.35;;;;;;;;;;5056501;28;20108;-77
2023/12/16 05:53:28;;;;;;;10.85;6.90;;;;;;;;;;5054841;28;20384;-78
2023/12/16 05:55:54;;;;;;;11.40;7.78;;;;;;;;;;5056959;28;20013;-78
2023/12/16 05:58:20;;;;;;;14.45;8.57;;;;;;;;;;5073843;28;20450;-77
2023/12/16 06:01:00;;;;;;;14.10;8.90;;;;;;;;;;5058451;28;20483;-78
2023/12/16 06:03:26;;;;;;;14.57;9.10;;;;;;;;;;5058836;28;20032;-78
2023/12/16 06:05:52;;;;;;;14.25;9.07;;;;;;;;;;5063868;28;20028;-78
2023/12/16 06:08:18;;;;;;;13.98;8.20;;;;;;;;;;5073347;28;20029;-77
2023/12/16 06:10:44;;;;;;;10.27;6.72;;;;;;;;;;5057620;28;20086;-78
2023/12/16 06:13:10;;;;;;;12.32;7.88;;;;;;;;;;5052786;28;20025;-78
2023/12/16 06:15:37;;;;;;;9.57;6.82;;;;;;;;;;5058875;28;20028;-78
2023/12/16 06:18:04;;;;;;;10.85;6.82;;;;;;;;;;5057892;28;20066;-78
2023/12/16 06:20:31;;;;;;;13.35;7.85;;;;;;;;;;5059050;28;20017;-77
2023/12/16 06:22:57;;;;;;;10.13;6.38;;;;;;;;;;5060977;28;20036;-78
2023/12/16 06:25:23;;;;;;;10.52;7.05;;;;;;;;;;5057293;28;20025;-78
2023/12/16 06:27:50;;;;;;;13.95;7.57;;;;;;;;;;5065038;28;20028;-77
2023/12/16 06:30:17;;;;;;;10.43;7.38;;;;;;;;;;5064417;28;20052;-78
2023/12/16 06:32:43;;;;;;;15.30;8.25;;;;;;;;;;5065450;28;20043;-78
2023/12/16 06:35:09;;;;;;;12.45;7.80;;;;;;;;;;5062411;28;20036;-77
2023/12/16 06:37:35;;;;;;;13.13;7.38;;;;;;;;;;5062756;28;20025;-77
2023/12/16 06:40:02;;;;;;;11.10;6.68;;;;;;;;;;5056032;28;20017;-77
2023/12/16 06:42:28;;;;;;;10.30;6.97;;;;;;;;;;5048346;28;20032;-79
2023/12/16 06:44:54;;;;;;;13.45;7.72;;;;;;;;;;5057002;28;20078;-77
2023/12/16 06:47:20;;;;;;;9.20;6.47;;;;;;;;;;5049844;28;20045;-79
2023/12/16 06:49:46;;;;;;;9.55;6.53;;;;;;;;;;5057384;28;20109;-79
2023/12/16 06:52:12;;;;;;;9.10;5.50;;;;;;;;;;5058067;28;20021;-79
2023/12/16 06:54:38;;;;;;;8.77;5.05;;;;;;;;;;5057210;28;20475;-79
2023/12/16 06:57:05;;;;;;;7.82;5.10;;;;;;;;;;5062662;28;20468;-78
2023/12/16 06:59:32;;;;;;;10.48;6.43;;;;;;;;;;5056398;28;20495;-79
2023/12/16 07:01:58;;;;;;;9.43;6.15;;;;;;;;;;5077131;28;20302;-79
2023/12/16 07:04:25;;;;;;;8.27;5.80;;;;;;;;;;5059318;28;20039;-78
2023/12/16 07:06:51;;;;;;;9.27;5.32;;;;;;;;;;5055980;28;20048;-79
2023/12/16 07:09:17;;;;;;;9.23;5.72;;;;;;;;;;5053996;28;20021;-79
2023/12/16 07:11:43;;;;;;;10.27;6.63;;;;;;;;;;5054557;28;20024;-79
2023/12/16 07:14:10;;;;;;;9.88;6.50;;;;;;;;;;5043324;28;20084;-78
2023/12/16 07:16:36;;;;;;;11.90;6.78;;;;;;;;;;5050122;28;20021;-78
2023/12/16 07:19:02;;;;;;;8.85;5.90;;;;;;;;;;5054856;28;20033;-77
2023/12/16 07:21:28;;;;;;;8.10;5.78;;;;;;;;;;5055272;28;20028;-77
2023/12/16 07:23:54;;;;;;;6.55;5.10;;;;;;;;;;5055445;28;20078;-78
2023/12/16 07:26:21;;;;;;;9.82;6.07;;;;;;;;;;5063410;28;20020;-79
2023/12/16 07:28:47;;;;;;;9.40;6.15;;;;;;;;;;5056137;28;20021;-79
2023/12/16 07:31:13;;;;;;;9.63;5.90;;;;;;;;;;5047748;28;20013;-79
2023/12/16 07:33:39;;;;;;;8.05;5.47;;;;;;;;;;5055321;28;20439;-78
2023/12/16 07:36:05;;;;;;;8.73;5.75;;;;;;;;;;5056153;28;20523;-78
2023/12/16 07:38:31;;;;;;;8.70;5.30;;;;;;;;;;5056031;28;20019;-79
2023/12/16 07:40:57;;;;;;;7.07;5.10;;;;;;;;;;5061682;28;20021;-78
2023/12/16 07:43:24;;;;;;;5.78;4.05;;;;;;;;;;5046756;28;20379;-78
2023/12/16 07:45:50;;;;;;;5.72;3.78;;;;;;;;;;5053981;28;20589;-77
2023/12/16 07:48:16;;;;;;;4.60;4.00;;;;;;;;;;5054617;28;20025;-78
2023/12/16 07:50:42;;;;;;;6.07;3.92;;;;;;;;;;5055372;28;20020;-78
2023/12/16 07:53:08;;;;;;;6.20;4.05;;;;;;;;;;5040102;28;20029;-78
2023/12/16 07:55:35;;;;;;;6.30;4.88;;;;;;;;;;5056668;28;20048;-78
2023/12/16 07:58:01;;;;;;;7.22;4.60;;;;;;;;;;5054221;28;20487;-78
2023/12/16 08:00:27;;;;;;;6.05;4.22;;;;;;;;;;5067019;28;20028;-80
2023/12/16 08:02:53;;;;;;;4.72;3.97;;;;;;;;;;5078433;28;20029;-78
2023/12/16 08:05:20;;;;;;;5.80;3.97;;;;;;;;;;5067390;28;20036;-78
2023/12/16 08:07:46;;;;;;;4.72;3.58;;;;;;;;;;5069930;28;20025;-79
2023/12/16 08:10:12;;;;;;;6.63;4.20;;;;;;;;;;5074450;28;20051;-79
2023/12/16 08:12:39;;;;;;;4.47;3.53;;;;;;;;;;5074631;28;20035;-78
2023/12/16 08:15:05;;;;;;;4.10;3.00;;;;;;;;;;5068156;28;20036;-77
2023/12/16 08:17:31;;;;;;;3.83;3.15;;;;;;;;;;5059669;28;20088;-79
2023/12/16 08:19:57;;;;;;;4.38;3.05;;;;;;;;;;5054772;28;20456;-78
2023/12/16 08:22:24;;;;;;;4.43;3.22;;;;;;;;;;5054757;28;20025;-78
2023/12/16 08:24:50;;;;;;;4.65;3.38;;;;;;;;;;5053993;28;20055;-77
2023/12/16 08:27:16;;;;;;;4.20;3.25;;;;;;;;;;5055447;28;20029;-79
2023/12/16 08:29:45;;;;;;;3.92;2.60;;;;;;;;;;5061176;28;20025;-77
2023/12/16 08:32:11;;;;;;;3.33;3.03;;;;;;;;;;5061336;28;20368;-78
2023/12/16 08:34:37;;;;;;;4.40;2.88;;;;;;;;;;5055153;28;20032;-77
2023/12/16 08:37:03;;;;;;;2.72;2.40;;;;;;;;;;5060672;28;20024;-78
2023/12/16 08:39:29;;;;;;;3.05;2.45;;;;;;;;;;5068135;28;20078;-78
2023/12/16 08:41:55;;;;;;;2.80;2.20;;;;;;;;;;5068408;28;20033;-77
2023/12/16 08:44:22;;;;;;;2.53;2.28;;;;;;;;;;5078271;28;20132;-77
2023/12/16 08:46:48;;;;;;;2.92;2.60;;;;;;;;;;5065193;28;20078;-79
2023/12/16 08:49:14;;;;;;;4.47;3.22;;;;;;;;;;5067771;28;20279;-77
2023/12/16 08:51:40;;;;;;;5.57;3.78;;;;;;;;;;5069914;28;20069;-77
2023/12/16 08:54:07;;;;;;;9.80;5.68;;;;;;;;;;5049550;28;20032;-77
2023/12/16 08:56:33;;;;;;;6.93;5.05;;;;;;;;;;5069964;28;20033;-78
2023/12/16 08:58:59;;;;;;;7.10;5.03;;;;;;;;;;5054701;28;20469;-78
2023/12/16 09:01:25;;;;;;;5.28;3.97;;;;;;;;;;5055037;28;20032;-77
2023/12/16 09:03:51;;;;;;;5.38;3.95;;;;;;;;;;5053532;28;20024;-78
2023/12/16 09:06:17;;;;;;;4.90;3.40;;;;;;;;;;5055712;28;20025;-77
2023/12/16 09:08:43;;;;;;;8.02;6.13;;;;;;;;;;5064062;28;20017;-78
2023/12/16 09:11:10;;;;;;;8.45;5.80;;;;;;;;;;5057681;28;20017;-78
2023/12/16 09:13:36;;;;;;;8.60;5.93;;;;;;;;;;5057697;28;20021;-77
2023/12/16 09:16:03;;;;;;;7.75;5.55;;;;;;;;;;5058766;28;20040;-78
2023/12/16 09:18:29;;;;;;;7.00;5.07;;;;;;;;;;5058551;28;20495;-78
2023/12/16 09:20:55;;;;;;;10.20;5.15;;;;;;;;;;5057394;28;20066;-78
2023/12/16 09:23:21;;;;;;;6.55;4.82;;;;;;;;;;5059391;28;20487;-78
2023/12/16 09:25:48;;;;;;;6.18;4.88;;;;;;;;;;5059495;28;20029;-77
2023/12/16 09:28:14;;;;;;;6.43;4.60;;;;;;;;;;5057225;28;20021;-78
2023/12/16 09:30:40;;;;;;;6.28;4.38;;;;;;;;;;5062538;28;20047;-77
2023/12/16 09:33:06;;;;;;;4.75;3.63;;;;;;;;;;5057493;28;20399;-78
2023/12/16 09:35:33;;;;;;;6.00;3.95;;;;;;;;;;5066185;28;20036;-78
2023/12/16 09:37:59;;;;;;;5.90;4.53;;;;;;;;;;5065760;28;20039;-78
2023/12/16 09:40:26;;;;;;;5.95;4.63;;;;;;;;;;5066600;28;20108;-78
2023/12/16 09:42:52;;;;;;;7.13;4.30;;;;;;;;;;5066684;28;20017;-78
2023/12/16 09:45:18;;;;;;;6.75;4.47;;;;;;;;;;5066671;28;20080;-77
2023/12/16 09:47:45;;;;;;;5.45;4.00;;;;;;;;;;5061481;28;20017;-77
2023/12/16 09:50:11;;;;;;;5.32;3.97;;;;;;;;;;5060805;28;20049;-77
2023/12/16 09:52:41;;;;;;;5.38;3.75;;;;;;;;;;5059811;28;20058;-77
2023/12/16 09:55:07;;;;;;;4.57;3.67;;;;;;;;;;5061126;28;20021;-77
2023/12/16 09:57:35;;;;;;;5.35;3.95;;;;;;;;;;5060027;28;20025;-78
2023/12/16 10:00:02;;;;;;;5.38;3.95;;;;;;;;;;5055554;28;20399;-79
2023/12/16 10:02:29;;;;;;;5.75;4.10;;;;;;;;;;5056050;28;20053;-78
2023/12/16 10:04:58;;;;;;;4.22;3.33;;;;;;;;;;5057389;28;20035;-79
2023/12/16 10:07:25;;;;;;;3.88;3.38;;;;;;;;;;5058680;28;20025;-78
2023/12/16 10:09:52;;;;;;;3.97;2.95;;;;;;;;;;5056336;28;20079;-78
2023/12/16 10:12:19;;;;;;;3.10;2.80;;;;;;;;;;5059473;28;20039;-78
2023/12/16 10:14:52;;;;;;;2.75;2.42;;;;;;;;;;5057941;28;20436;-77
2023/12/16 10:17:19;;;;;;;3.20;2.55;;;;;;;;;;5048028;28;20104;-78
2023/12/16 10:19:46;;;;;;;3.10;2.28;;;;;;;;;;5058032;28;20531;-77
2023/12/16 10:22:19;;;;;;;5.13;2.85;;;;;;;;;;5062026;28;20028;-79
2023/12/16 10:24:46;;;;;;;4.53;3.10;;;;;;;;;;5062831;28;20024;-79
2023/12/16 10:27:13;;;;;;;4.50;3.55;;;;;;;;;;5068606;28;20040;-78
2023/12/16 10:29:42;;;;;;;3.38;2.40;;;;;;;;;;5059795;28;20052;-77
2023/12/16 10:32:12;;;;;;;2.80;2.45;;;;;;;;;;5059032;28;20117;-77
2023/12/16 10:34:38;;;;;;;2.85;2.55;;;;;;;;;;5076245;28;20497;-78
2023/12/16 10:37:04;;;;;;;3.45;2.40;;;;;;;;;;5059880;28;20048;-80
2023/12/16 10:39:31;;;;;;;2.10;1.90;;;;;;;;;;5066796;28;20025;-77
2023/12/16 10:41:57;;;;;;;2.50;2.25;;;;;;;;;;5060018;28;20093;-79
2023/12/16 10:44:23;;;;;;;2.75;2.42;;;;;;;;;;5058276;28;20028;-78
2023/12/16 10:46:52;;;;;;;5.57;2.40;;;;;;;;;;5058653;28;20065;-78
2023/12/16 10:49:18;;;;;;;2.25;1.75;;;;;;;;;;5058351;28;20017;-77
2023/12/16 10:51:45;;;;;;;3.22;1.50;;;;;;;;;;5056945;28;20025;-78
2023/12/16 10:54:18;;;;;;;1.70;1.48;;;;;;;;;;5055526;28;20035;-78
2023/12/16 10:56:49;;;;;;;2.00;1.83;;;;;;;;;;5060296;28;20024;-77
2023/12/16 10:59:19;;;;;;;3.25;1.83;;;;;;;;;;5053829;28;20049;-77
2023/12/16 11:01:46;;;;;;;2.05;1.80;;;;;;;;;;5065868;28;20028;-76
2023/12/16 11:04:12;;;;;;;2.28;1.35;;;;;;;;;;5059340;28;20099;-77
2023/12/16 11:06:59;;;;;;;3.20;1.48;;;;;;;;;;5063460;28;20017;-77
2023/12/16 11:09:25;;;;;;;1.45;1.35;;;;;;;;;;5053439;28;20021;-77
2023/12/16 11:11:53;;;;;;;1.33;1.20;;;;;;;;;;5056267;28;20096;-77
2023/12/16 11:14:20;;;;;;;1.63;1.27;;;;;;;;;;5056286;28;20143;-77
2023/12/16 11:16:55;;;;;;;2.05;1.15;;;;;;;;;;5057930;28;20028;-77
2023/12/16 11:19:23;;;;;;;1.30;1.10;;;;;;;;;;5055737;28;20363;-77
2023/12/16 11:21:50;;;;;;;1.05;0.95;;;;;;;;;;5056912;28;20059;-78
2023/12/16 11:24:16;;;;;;;1.13;1.02;;;;;;;;;;5057493;28;20025;-78
2023/12/16 11:26:42;;;;;;;1.33;1.23;;;;;;;;;;5054910;28;20021;-77
2023/12/16 11:29:08;;;;;;;1.55;1.27;;;;;;;;;;5054406;28;20058;-77
2023/12/16 11:31:36;;;;;;;1.27;1.17;;;;;;;;;;5056576;28;20029;-78
2023/12/16 11:34:03;;;;;;;1.45;1.27;;;;;;;;;;5052013;28;20025;-78
2023/12/16 11:36:49;;;;;;;1.67;1.42;;;;;;;;;;5054847;28;20028;-76
2023/12/16 11:39:34;;;;;;;2.72;2.28;;;;;;;;;;5054739;28;20028;-77
2023/12/16 11:42:00;;;;;;;2.58;1.90;;;;;;;;;;5054769;28;20025;-78
2023/12/16 11:44:44;;;;;;;1.55;1.45;;;;;;;;;;5054757;28;20036;-77
2023/12/16 11:47:17;;;;;;;2.22;1.58;;;;;;;;;;5055173;28;20040;-78
2023/12/16 11:49:44;;;;;;;2.03;1.30;;;;;;;;;;5055083;28;20025;-78
2023/12/16 11:52:10;;;;;;;2.10;1.50;;;;;;;;;;5061103;28;20017;-78
2023/12/16 11:54:36;;;;;;;1.63;1.38;;;;;;;;;;5056736;28;20028;-77
2023/12/16 11:57:02;;;;;;;3.15;1.20;;;;;;;;;;5058243;28;20040;-78
2023/12/16 11:59:28;;;;;;;1.23;1.10;;;;;;;;;;5064589;28;20025;-77
2023/12/16 12:01:54;;;;;;;1.10;1.00;;;;;;;;;;5059705;28;20025;-79
2023/12/16 12:04:21;;;;;;;0.90;0.80;;;;;;;;;;5055458;28;20032;-77
2023/12/16 12:06:47;;;;;;;1.00;0.90;;;;;;;;;;5054120;28;20100;-77
2023/12/16 12:09:13;;;;;;;2.28;0.95;;;;;;;;;;5068858;28;20104;-77
2023/12/16 12:11:39;;;;;;;1.10;0.80;;;;;;;;;;5056526;28;20506;-77
2023/12/16 12:14:05;;;;;;;0.93;0.70;;;;;;;;;;5061469;28;20080;-77
2023/12/16 12:16:32;;;;;;;1.10;0.90;;;;;;;;;;5061265;28;20021;-78
2023/12/16 12:18:58;;;;;;;0.70;0.70;;;;;;;;;;5058215;28;20505;-76
2023/12/16 12:21:24;;;;;;;0.82;0.80;;;;;;;;;;5058019;28;20021;-78
2023/12/16 12:23:50;;;;;;;0.88;0.80;;;;;;;;;;5057039;28;20029;-77
2023/12/16 12:26:23;;;;;;;0.65;0.65;;;;;;;;;;5055616;28;20025;-78
2023/12/16 12:28:59;;;;;;;0.82;0.70;;;;;;;;;;5054210;28;20025;-77
2023/12/16 12:31:28;;;;;;;0.90;0.70;;;;;;;;;;5038304;28;20021;-78
2023/12/16 12:33:54;;;;;;;1.90;1.38;;;;;;;;;;5054196;28;20179;-78
2023/12/16 12:36:20;;;;;;;1.38;1.27;;;;;;;;;;5053975;28;20017;-77
2023/12/16 12:38:56;;;;;;;2.00;0.95;;;;;;;;;;5054291;28;20025;-77
2023/12/16 12:41:22;;;;;;;0.88;0.75;;;;;;;;;;5060430;28;20019;-78
2023/12/16 12:43:49;;;;;;;1.00;1.00;;;;;;;;;;5080507;28;20025;-78
2023/12/16 12:46:18;;;;;;;1.02;0.90;;;;;;;;;;5080863;28;20009;-78
2023/12/16 12:48:57;;;;;;;0.80;0.80;;;;;;;;;;5081457;28;20009;-78
2023/12/16 12:51:23;;;;;;;0.70;0.70;;;;;;;;;;5080737;28;20017;-79
2023/12/16 12:53:59;;;;;;;0.57;0.57;;;;;;;;;;5081137;28;20039;-79
2023/12/16 12:56:25;;;;;;;0.65;0.65;;;;;;;;;;5061038;28;20018;-78
2023/12/16 12:58:51;;;;;;;1.83;1.67;;;;;;;;;;5075642;28;20032;-79
2023/12/16 13:01:18;;;;;;;2.60;2.00;;;;;;;;;;5077994;28;20047;-77
2023/12/16 13:03:44;;;;;;;1.50;1.35;;;;;;;;;;5070522;28;20022;-77
2023/12/16 13:06:10;;;;;;;1.83;1.30;;;;;;;;;;5053535;28;20047;-75
2023/12/16 13:08:37;;;;;;;3.20;2.00;;;;;;;;;;5063700;28;20088;-76
2023/12/16 13:11:03;;;;;;;3.20;2.40;;;;;;;;;;5061133;28;20086;-78
2023/12/16 13:13:29;;;;;;;2.47;1.90;;;;;;;;;;5060165;28;20021;-77
2023/12/16 13:15:56;;;;;;;2.17;2.00;;;;;;;;;;5060585;28;20017;-77
2023/12/16 13:18:23;;;;;;;2.22;1.75;;;;;;;;;;5052029;28;20024;-76
2023/12/16 13:20:49;;;;;;;2.35;1.70;;;;;;;;;;5059789;28;20056;-77
2023/12/16 13:23:15;;;;;;;4.80;2.10;;;;;;;;;;5059578;28;20028;-75
2023/12/16 13:25:41;;;;;;;4.38;2.90;;;;;;;;;;5057089;28;20036;-76
2023/12/16 13:28:07;;;;;;;3.10;2.60;;;;;;;;;;5043406;28;20036;-78
2023/12/16 13:30:33;;;;;;;2.80;1.88;;;;;;;;;;5058871;28;20036;-77
2023/12/16 13:33:00;;;;;;;2.05;1.70;;;;;;;;;;5059072;28;20013;-77
2023/12/16 13:35:26;;;;;;;1.88;1.50;;;;;;;;;;5058974;28;20017;-78
2023/12/16 13:37:52;;;;;;;1.52;1.30;;;;;;;;;;5059963;28;20028;-79
2023/12/16 13:40:18;;;;;;;1.40;1.10;;;;;;;;;;5057389;28;20025;-77
2023/12/16 13:42:44;;;;;;;0.88;0.88;;;;;;;;;;5057099;28;20024;-76
2023/12/16 13:45:12;;;;;;;2.67;1.40;;;;;;;;;;5059218;28;20040;-76
2023/12/16 13:47:38;;;;;;;4.85;2.40;;;;;;;;;;5062381;28;20056;-76
2023/12/16 13:50:04;;;;;;;2.65;2.38;;;;;;;;;;5062920;28;20028;-76
2023/12/16 13:52:31;;;;;;;3.03;2.55;;;;;;;;;;5064813;28;20017;-76
2023/12/16 13:54:57;;;;;;;3.42;1.85;;;;;;;;;;5069502;28;20032;-76
2023/12/16 13:57:23;;;;;;;2.28;2.08;;;;;;;;;;5072721;28;20013;-77
2023/12/16 13:59:49;;;;;;;2.97;2.67;;;;;;;;;;5076757;28;20029;-76
2023/12/16 14:02:15;;;;;;;2.53;2.20;;;;;;;;;;5077325;28;20013;-77
2023/12/16 14:04:43;;;;;;;4.03;2.58;;;;;;;;;;5074057;28;20013;-78
2023/12/16 14:07:09;;;;;;;3.70;2.55;;;;;;;;;;5058176;28;20553;-78
2023/12/16 14:09:35;;;;;;;2.72;2.30;;;;;;;;;;5059085;28;20017;-77
2023/12/16 14:12:01;;;;;;;2.83;2.38;;;;;;;;;;5057288;28;20032;-76
2023/12/16 14:14:28;;;;;;;2.67;2.10;;;;;;;;;;5058030;28;20047;-77
2023/12/16 14:16:54;;;;;;;2.97;2.40;;;;;;;;;;5058816;28;20025;-77
2023/12/16 14:19:20;;;;;;;3.20;2.10;;;;;;;;;;5056766;28;20467;-77
2023/12/16 14:21:46;;;;;;;3.03;2.00;;;;;;;;;;5056956;28;20029;-78
2023/12/16 14:24:13;;;;;;;8.38;2.15;;;;;;;;;;5055823;28;20033;-76
2023/12/16 14:26:39;;;;;;;2.05;1.80;;;;;;;;;;5056199;28;20025;-77
2023/12/16 14:29:05;;;;;;;1.75;1.55;;;;;;;;;;5056486;28;20021;-77
2023/12/16 14:31:31;;;;;;;1.50;1.40;;;;;;;;;;5060299;28;20021;-78
2023/12/16 14:33:57;;;;;;;1.58;1.25;;;;;;;;;;5071261;28;20390;-77
2023/12/16 14:36:24;;;;;;;2.20;1.73;;;;;;;;;;5071091;28;20056;-76